Search for airport 
image banner adimage banner adimage banner ad
image banner ad

KCCR - Buchanan Field

Located in Concord, United States

ICAO - CCR, IATA - CCR

Data provided by Airmate  

General information

Coordinates: N37°59'23" W122°3'25"
Elevation is 26 feet MSL.
Magnetic variation is 13° East
View others Airports in California

Operational data

Special qualification required
Current time UTC:
Current local time:
Weather
METAR: KCCR 210953Z AUTO 25012KT 10SM CLR 14/11 A2987 RMK AO2 SLP102 T01440111
View NOTAMs / SUP AIP / TFR affecting this airport [VIEW]
Communications frequencies: [VIEW]

Runways:

RWY identifierQFULength (ft)Width (ft)SurfaceLDA (ft)
01R24°277075ASPH2770
19L204°277075ASPH2770
01L24°5001150OTHER4401
19R204°5001150OTHER4401
14R154°279875ASPH2799
32L334°279875ASPH2799
14L154°4602150OTHER3701
32R334°4602150OTHER4131

Airport contact information

Address: Concord United States

Other aviation service providers

Flight schools

Pacific States Aviation

Pacific States Aviation
info@psa.aero+1(925)685-4400

Concord Flying Club

Concord Flying Club
cfikevin@gmail.com+1(707)733-3221

Nri Flying Club, Inc.

Nri Flying Club, Inc.
nripresident@gmail.com+1(925)984-4733

Sterling Aviation Flight Training Center

Sterling Aviation Flight Training Center
ChrisH@Sterlingav.com+1(925)676-2100

Jato Aviation

Jato Aviation
ops@jatoaviation.com+1(650)654-5286

Satellite view of KCCR